createdAt,value
2023-03-16T00:00:09.727Z,70.40
2023-03-16T00:02:36.385Z,70.10
2023-03-16T00:05:03.066Z,70.13
2023-03-16T00:07:29.727Z,70.14
2023-03-16T00:09:56.496Z,70.11
2023-03-16T00:12:23.203Z,70.13
2023-03-16T00:14:49.913Z,70.32
2023-03-16T00:17:21.008Z,70.61
2023-03-16T00:19:55.219Z,70.60
2023-03-16T00:22:23.305Z,70.68
2023-03-16T00:24:49.902Z,71.00
2023-03-16T00:27:17.350Z,70.79
2023-03-16T00:29:48.242Z,70.97
2023-03-16T00:32:19.099Z,71.03
2023-03-16T00:34:46.049Z,71.00
2023-03-16T00:37:15.380Z,71.07
2023-03-16T00:39:42.904Z,71.35
2023-03-16T00:42:10.305Z,71.54
2023-03-16T00:44:37.375Z,71.22
2023-03-16T00:47:04.905Z,71.38
2023-03-16T00:49:34.862Z,71.53
2023-03-16T00:52:05.470Z,71.40
2023-03-16T00:54:34.761Z,71.61
2023-03-16T00:57:01.618Z,71.40
2023-03-16T00:59:28.709Z,71.62
2023-03-16T01:01:55.747Z,71.67
2023-03-16T01:04:22.525Z,72.00
2023-03-16T01:06:49.499Z,72.04
2023-03-16T01:09:16.149Z,71.52
2023-03-16T01:11:43.244Z,71.52
2023-03-16T01:14:10.421Z,71.94
2023-03-16T01:16:37.161Z,71.68
2023-03-16T01:19:03.934Z,71.71
2023-03-16T01:21:32.521Z,71.50
2023-03-16T01:23:59.307Z,71.37
2023-03-16T01:26:25.980Z,71.21
2023-03-16T01:28:52.608Z,71.40
2023-03-16T01:31:19.316Z,71.49
2023-03-16T01:33:46.015Z,71.49
2023-03-16T01:36:14.854Z,71.21
2023-03-16T01:38:41.509Z,71.35
2023-03-16T01:41:08.291Z,70.97
2023-03-16T01:43:35.571Z,71.04
2023-03-16T01:46:05.279Z,71.13
2023-03-16T01:48:55.702Z,71.19
2023-03-16T01:51:36.331Z,71.64
2023-03-16T01:54:07.952Z,71.67
2023-03-16T01:56:38.334Z,71.65
2023-03-16T01:59:07.647Z,71.56
2023-03-16T02:01:34.427Z,71.52
2023-03-16T02:04:29.090Z,71.81
2023-03-16T02:06:55.934Z,72.27
2023-03-16T02:09:22.756Z,72.42
2023-03-16T02:11:49.383Z,72.43
2023-03-16T02:14:16.117Z,72.50
2023-03-16T02:16:42.812Z,72.92
2023-03-16T02:19:12.867Z,72.85
2023-03-16T02:22:02.216Z,72.93
2023-03-16T02:24:28.898Z,72.55
2023-03-16T02:26:57.921Z,72.47
2023-03-16T02:29:25.822Z,72.58
2023-03-16T02:31:53.242Z,72.42
2023-03-16T02:34:19.868Z,71.90
2023-03-16T02:36:46.957Z,71.91
2023-03-16T02:39:13.622Z,72.21
2023-03-16T02:41:41.809Z,72.63
2023-03-16T02:44:15.304Z,72.38
2023-03-16T02:46:43.620Z,72.22
2023-03-16T02:49:22.509Z,72.38
2023-03-16T02:51:49.146Z,72.49
2023-03-16T02:54:16.034Z,72.04
2023-03-16T02:56:42.720Z,72.29
2023-03-16T02:59:09.377Z,72.17
2023-03-16T03:01:36.715Z,71.36
2023-03-16T03:04:04.046Z,71.56
2023-03-16T03:06:32.349Z,72.07
2023-03-16T03:08:59.575Z,71.70
2023-03-16T03:11:26.328Z,72.25
2023-03-16T03:13:54.108Z,72.43
2023-03-16T03:16:21.384Z,72.23
2023-03-16T03:18:48.415Z,71.95
2023-03-16T03:21:15.114Z,72.09
2023-03-16T03:23:41.760Z,72.22
2023-03-16T03:26:08.453Z,72.30
2023-03-16T03:28:35.335Z,72.41
2023-03-16T03:31:02.002Z,71.96
2023-03-16T03:33:28.887Z,71.52
2023-03-16T03:35:57.259Z,70.66
2023-03-16T03:38:24.723Z,69.33
2023-03-16T03:40:52.084Z,67.90
2023-03-16T03:43:19.031Z,67.34
2023-03-16T03:45:45.750Z,66.91
2023-03-16T03:48:12.456Z,66.67
2023-03-16T03:50:40.654Z,66.71
2023-03-16T03:53:07.768Z,66.53
2023-03-16T03:55:34.456Z,66.39
2023-03-16T03:58:01.073Z,66.33
2023-03-16T04:00:27.877Z,66.40
2023-03-16T04:02:54.710Z,66.44
2023-03-16T04:05:22.037Z,66.70
2023-03-16T04:07:50.770Z,66.67
2023-03-16T04:10:17.447Z,66.62
2023-03-16T04:12:44.138Z,66.77
2023-03-16T04:15:12.579Z,66.81
2023-03-16T04:17:39.260Z,67.26
2023-03-16T04:20:11.836Z,67.67
2023-03-16T04:22:38.456Z,68.31
2023-03-16T04:25:05.366Z,69.34
2023-03-16T04:27:36.490Z,69.70
2023-03-16T04:30:05.722Z,69.86
2023-03-16T04:32:35.513Z,69.92
2023-03-16T04:35:02.188Z,70.19
2023-03-16T04:37:28.906Z,70.42
2023-03-16T04:39:55.623Z,70.54
2023-03-16T04:42:22.434Z,70.91
2023-03-16T04:44:49.281Z,71.52
2023-03-16T04:47:16.764Z,71.68
2023-03-16T04:49:43.455Z,71.83
2023-03-16T04:52:10.344Z,72.16
2023-03-16T04:54:36.947Z,72.21
2023-03-16T04:57:06.742Z,72.30
2023-03-16T04:59:33.431Z,72.36
2023-03-16T05:02:00.083Z,72.43
2023-03-16T05:04:26.823Z,72.13
2023-03-16T05:06:53.509Z,72.00
2023-03-16T05:09:20.809Z,72.65
2023-03-16T05:11:47.504Z,72.30
2023-03-16T05:14:14.158Z,71.97
2023-03-16T05:16:42.065Z,71.66
2023-03-16T05:19:08.767Z,71.86
2023-03-16T05:21:37.803Z,72.18
2023-03-16T05:24:08.036Z,72.45
2023-03-16T05:26:34.835Z,72.39
2023-03-16T05:29:01.958Z,72.52
2023-03-16T05:31:32.821Z,72.92
2023-03-16T05:33:59.533Z,73.01
2023-03-16T05:36:26.196Z,72.74
2023-03-16T05:38:52.908Z,72.79
2023-03-16T05:41:21.481Z,72.25
2023-03-16T05:43:48.197Z,72.19
2023-03-16T05:46:14.913Z,72.27
2023-03-16T05:48:41.603Z,72.59
2023-03-16T05:51:08.325Z,72.44
2023-03-16T05:53:36.212Z,72.69
2023-03-16T05:56:03.111Z,72.48
2023-03-16T05:58:29.798Z,71.59
2023-03-16T06:00:56.500Z,70.71
2023-03-16T06:03:23.176Z,70.26
2023-03-16T06:05:49.869Z,69.36
2023-03-16T06:08:16.535Z,69.05
2023-03-16T06:10:43.240Z,68.23
2023-03-16T06:13:09.839Z,67.37
2023-03-16T06:15:36.595Z,67.81
2023-03-16T06:18:03.296Z,66.92
2023-03-16T06:20:30.285Z,67.53
2023-03-16T06:22:57.148Z,66.83
2023-03-16T06:25:24.190Z,66.53
2023-03-16T06:27:50.977Z,66.87
2023-03-16T06:30:17.947Z,67.12
2023-03-16T06:32:45.778Z,66.63
2023-03-16T06:35:12.647Z,66.11
2023-03-16T06:37:39.334Z,65.82
2023-03-16T06:40:06.832Z,65.62
2023-03-16T06:42:33.774Z,66.13
2023-03-16T06:45:01.029Z,66.40
2023-03-16T06:47:27.728Z,65.27
2023-03-16T06:49:55.428Z,65.39
2023-03-16T06:52:22.400Z,65.48
2023-03-16T06:54:49.058Z,65.39
2023-03-16T06:57:15.710Z,65.49
2023-03-16T06:59:42.381Z,64.67
2023-03-16T07:02:12.080Z,64.31
2023-03-16T07:04:38.860Z,64.19
2023-03-16T07:07:05.496Z,63.18
2023-03-16T07:09:32.173Z,62.56
2023-03-16T07:11:58.915Z,63.43
2023-03-16T07:14:26.327Z,63.84
2023-03-16T07:16:53.176Z,63.03
2023-03-16T07:19:20.079Z,63.39
2023-03-16T07:21:46.783Z,63.54
2023-03-16T07:24:13.352Z,63.91
2023-03-16T07:26:40.097Z,64.18
2023-03-16T07:29:06.817Z,63.46
2023-03-16T07:31:36.513Z,63.43
2023-03-16T07:34:03.997Z,63.16
2023-03-16T07:36:30.700Z,62.85
2023-03-16T07:38:57.375Z,62.46
2023-03-16T07:41:25.407Z,61.50
2023-03-16T07:43:52.127Z,61.18
2023-03-16T07:46:18.844Z,60.74
2023-03-16T07:48:45.576Z,60.54
2023-03-16T07:51:12.548Z,60.38
2023-03-16T07:53:39.628Z,61.09
2023-03-16T07:56:06.576Z,60.38
2023-03-16T07:58:33.731Z,60.34
2023-03-16T08:01:01.577Z,60.00
2023-03-16T08:03:29.126Z,60.00
2023-03-16T08:05:55.787Z,59.19
2023-03-16T08:08:22.637Z,59.53
2023-03-16T08:10:52.747Z,59.18
2023-03-16T08:13:20.156Z,58.40
2023-03-16T08:15:48.166Z,56.43
2023-03-16T08:18:14.909Z,55.01
2023-03-16T08:20:42.271Z,53.14
2023-03-16T08:23:08.985Z,50.13
2023-03-16T08:25:35.749Z,47.37
2023-03-16T08:28:02.465Z,45.86
2023-03-16T08:30:30.766Z,44.48
2023-03-16T08:32:57.787Z,44.60
2023-03-16T08:35:24.677Z,45.18
2023-03-16T08:37:51.352Z,44.85
2023-03-16T08:40:18.415Z,45.14
2023-03-16T08:42:45.272Z,44.33
2023-03-16T08:45:14.293Z,45.38
2023-03-16T08:47:41.341Z,44.93
2023-03-16T08:50:08.798Z,45.21
2023-03-16T08:52:36.601Z,44.84
2023-03-16T08:55:05.597Z,44.57
2023-03-16T08:57:33.436Z,44.61
2023-03-16T09:00:00.230Z,44.55
2023-03-16T09:02:26.914Z,44.67
2023-03-16T09:04:53.627Z,45.79
2023-03-16T09:07:20.617Z,45.97
2023-03-16T09:09:47.299Z,46.53
2023-03-16T09:12:13.941Z,46.96
2023-03-16T09:14:40.738Z,46.21
2023-03-16T09:17:11.832Z,46.59
2023-03-16T09:19:58.802Z,45.77
2023-03-16T09:22:25.835Z,45.96
2023-03-16T09:24:52.602Z,46.91
2023-03-16T09:27:20.649Z,46.24
2023-03-16T09:29:47.532Z,46.26
2023-03-16T09:32:14.652Z,46.08
2023-03-16T09:34:41.591Z,45.92
2023-03-16T09:37:08.264Z,46.13
2023-03-16T09:39:34.894Z,46.98
2023-03-16T09:42:27.243Z,46.74
2023-03-16T09:44:59.822Z,45.60
2023-03-16T09:47:28.875Z,45.17
2023-03-16T09:50:00.097Z,45.12
2023-03-16T09:52:48.455Z,45.47
2023-03-16T09:55:31.298Z,45.72
2023-03-16T09:57:58.887Z,44.61
2023-03-16T10:00:27.588Z,44.14
2023-03-16T10:03:00.386Z,44.75
2023-03-16T10:05:27.339Z,44.19
2023-03-16T10:08:09.295Z,43.70
2023-03-16T10:10:47.005Z,44.04
2023-03-16T10:13:36.410Z,45.79
2023-03-16T10:16:07.799Z,44.50
2023-03-16T10:18:38.895Z,45.80
2023-03-16T10:21:05.596Z,44.83
2023-03-16T10:23:32.704Z,44.89
2023-03-16T10:25:59.451Z,43.50
2023-03-16T10:28:27.250Z,43.87
2023-03-16T10:30:55.518Z,43.98
2023-03-16T10:33:26.785Z,44.12
2023-03-16T10:36:05.650Z,44.84
2023-03-16T10:38:49.346Z,44.70
2023-03-16T10:41:21.390Z,44.87
2023-03-16T10:43:51.576Z,45.13
2023-03-16T10:46:18.885Z,44.91
2023-03-16T10:49:01.871Z,45.60
2023-03-16T10:51:29.905Z,45.82
2023-03-16T10:54:21.917Z,45.96
2023-03-16T10:56:50.628Z,46.63
2023-03-16T10:59:26.485Z,47.08
2023-03-16T11:01:53.175Z,46.62
2023-03-16T11:04:20.489Z,46.80
2023-03-16T11:06:56.720Z,47.93
2023-03-16T11:09:33.680Z,47.50
2023-03-16T11:12:01.456Z,48.00
2023-03-16T11:14:28.646Z,47.94
2023-03-16T11:17:06.119Z,48.39
2023-03-16T11:19:33.695Z,48.66
2023-03-16T11:22:20.020Z,48.63
2023-03-16T11:24:54.185Z,48.58
2023-03-16T11:27:24.877Z,48.30
2023-03-16T11:30:04.924Z,48.94
2023-03-16T11:32:41.600Z,48.46
2023-03-16T11:35:19.670Z,48.10
2023-03-16T11:38:07.693Z,48.50
2023-03-16T11:41:02.149Z,48.27
2023-03-16T11:43:55.783Z,48.18
2023-03-16T11:46:31.628Z,47.73
2023-03-16T11:49:01.906Z,48.41
2023-03-16T11:52:03.652Z,48.41
2023-03-16T11:54:55.009Z,48.47
2023-03-16T11:57:32.780Z,48.48
2023-03-16T12:00:13.538Z,48.05
2023-03-16T12:03:02.125Z,47.67
2023-03-16T12:05:39.910Z,48.06
2023-03-16T12:08:16.968Z,48.16
2023-03-16T12:11:21.069Z,47.88
2023-03-16T12:13:53.514Z,48.68
2023-03-16T12:16:49.234Z,47.68
2023-03-16T12:19:30.816Z,47.84
2023-03-16T12:22:31.018Z,47.59
2023-03-16T12:24:57.708Z,47.59
2023-03-16T12:27:31.635Z,47.85
2023-03-16T12:30:25.903Z,47.96
2023-03-16T12:33:40.837Z,48.16
2023-03-16T12:36:19.099Z,48.28
2023-03-16T12:39:15.978Z,48.35
2023-03-16T12:41:54.602Z,47.89
2023-03-16T12:44:46.109Z,47.65
2023-03-16T12:47:50.934Z,48.03
2023-03-16T12:50:18.894Z,47.82
2023-03-16T12:52:54.631Z,48.45
2023-03-16T12:55:24.741Z,46.99
2023-03-16T12:57:51.632Z,46.89
2023-03-16T13:00:18.799Z,48.05
2023-03-16T13:02:53.671Z,47.23
2023-03-16T13:05:34.739Z,47.47
2023-03-16T13:08:13.716Z,46.70
2023-03-16T13:10:40.473Z,47.11
2023-03-16T13:13:15.157Z,47.81
2023-03-16T13:15:42.629Z,47.42
2023-03-16T13:18:09.145Z,47.10
2023-03-16T13:20:57.883Z,47.53
2023-03-16T13:23:30.191Z,47.65
2023-03-16T13:26:16.139Z,47.60
2023-03-16T13:28:45.376Z,47.40
2023-03-16T13:31:24.149Z,48.31
2023-03-16T13:33:53.504Z,48.88
2023-03-16T13:36:20.101Z,48.31
2023-03-16T13:39:15.577Z,47.96
2023-03-16T13:41:43.471Z,48.80
2023-03-16T13:44:14.918Z,49.12
2023-03-16T13:46:41.565Z,48.54
2023-03-16T13:49:11.989Z,50.01
2023-03-16T13:51:38.709Z,49.33
2023-03-16T13:54:09.061Z,49.44
2023-03-16T13:56:37.301Z,49.84
2023-03-16T13:59:04.105Z,49.96
2023-03-16T14:01:32.319Z,50.05
2023-03-16T14:04:05.597Z,49.74
2023-03-16T14:06:35.352Z,49.79
2023-03-16T14:09:06.283Z,50.16
2023-03-16T14:11:33.187Z,49.68
2023-03-16T14:14:00.538Z,50.38
2023-03-16T14:16:28.935Z,51.10
2023-03-16T14:19:06.689Z,50.39
2023-03-16T14:21:36.118Z,50.25
2023-03-16T14:24:04.933Z,50.32
2023-03-16T14:26:42.241Z,50.58
2023-03-16T14:29:35.748Z,50.70
2023-03-16T14:32:03.326Z,50.48
2023-03-16T14:34:35.265Z,50.32
2023-03-16T14:37:13.096Z,50.25
2023-03-16T14:39:42.468Z,50.30
2023-03-16T14:42:20.106Z,50.55
2023-03-16T14:44:46.708Z,50.64
2023-03-16T14:47:24.518Z,51.20
2023-03-16T14:49:51.356Z,50.97
2023-03-16T14:52:27.326Z,51.28
2023-03-16T14:54:55.308Z,51.11
2023-03-16T14:57:22.261Z,51.81
2023-03-16T14:59:48.921Z,51.70
2023-03-16T15:02:25.409Z,50.97
2023-03-16T15:04:52.107Z,51.62
2023-03-16T15:07:26.457Z,51.81
2023-03-16T15:09:53.939Z,51.44
2023-03-16T15:12:21.116Z,52.08
2023-03-16T15:15:06.644Z,52.26
2023-03-16T15:17:33.653Z,52.60
2023-03-16T15:20:00.381Z,52.55
2023-03-16T15:22:31.732Z,52.60
2023-03-16T15:24:58.934Z,52.40
2023-03-16T15:27:34.238Z,51.80
2023-03-16T15:30:00.988Z,51.31
2023-03-16T15:32:27.705Z,51.38
2023-03-16T15:34:54.449Z,52.51
2023-03-16T15:37:23.275Z,52.05
2023-03-16T15:39:49.726Z,52.61
2023-03-16T15:42:18.841Z,52.48
2023-03-16T15:44:47.437Z,52.62
2023-03-16T15:47:14.685Z,53.40
2023-03-16T15:49:47.811Z,53.46
2023-03-16T15:52:29.638Z,53.88
2023-03-16T15:54:57.552Z,53.89
2023-03-16T15:57:24.640Z,54.17
2023-03-16T15:59:52.478Z,53.64
2023-03-16T16:02:37.625Z,53.90
2023-03-16T16:05:04.459Z,53.80
2023-03-16T16:07:31.513Z,53.42
2023-03-16T16:09:58.222Z,53.45
2023-03-16T16:12:27.229Z,53.92
2023-03-16T16:14:56.289Z,53.75
2023-03-16T16:17:36.567Z,55.25
2023-03-16T16:20:22.940Z,54.53
2023-03-16T16:22:52.004Z,54.87
2023-03-16T16:25:19.590Z,55.21
2023-03-16T16:27:46.923Z,55.04
2023-03-16T16:30:27.815Z,55.18
2023-03-16T16:32:56.310Z,55.62
2023-03-16T16:35:27.056Z,56.06
2023-03-16T16:37:54.283Z,55.81
2023-03-16T16:40:23.348Z,55.62
2023-03-16T16:42:51.862Z,55.51
2023-03-16T16:45:20.290Z,55.81
2023-03-16T16:47:48.292Z,55.87
2023-03-16T16:50:23.262Z,56.10
2023-03-16T16:52:50.126Z,56.39
2023-03-16T16:55:16.936Z,56.41
2023-03-16T16:57:43.991Z,56.74
2023-03-16T17:00:23.182Z,57.31
2023-03-16T17:02:52.723Z,56.95
2023-03-16T17:05:24.301Z,57.44
2023-03-16T17:07:51.129Z,56.75
2023-03-16T17:10:28.198Z,57.32
2023-03-16T17:12:56.061Z,57.91
2023-03-16T17:15:25.937Z,57.44
2023-03-16T17:17:53.415Z,57.32
2023-03-16T17:20:21.033Z,57.40
2023-03-16T17:22:48.479Z,58.11
2023-03-16T17:25:16.601Z,57.80
2023-03-16T17:27:44.423Z,57.87
2023-03-16T17:30:32.280Z,58.22
2023-03-16T17:33:11.229Z,58.80
2023-03-16T17:35:38.019Z,58.99
2023-03-16T17:38:15.013Z,58.49
2023-03-16T17:40:41.796Z,59.05
2023-03-16T17:43:15.250Z,58.99
2023-03-16T17:45:42.292Z,58.73
2023-03-16T17:48:20.310Z,58.62
2023-03-16T17:50:47.339Z,59.29
2023-03-16T17:53:18.398Z,59.33
2023-03-16T17:55:46.318Z,59.17
2023-03-16T17:58:25.879Z,58.83
2023-03-16T18:00:54.096Z,58.83
2023-03-16T18:03:20.865Z,58.87
2023-03-16T18:05:47.828Z,58.87
2023-03-16T18:08:16.310Z,59.04
2023-03-16T18:10:43.898Z,58.89
2023-03-16T18:13:19.227Z,59.00
2023-03-16T18:15:47.144Z,59.03
2023-03-16T18:18:21.453Z,59.31
2023-03-16T18:20:52.241Z,59.46
2023-03-16T18:23:20.983Z,59.90
2023-03-16T18:25:48.732Z,59.47
2023-03-16T18:28:15.851Z,60.08
2023-03-16T18:30:44.637Z,59.75
2023-03-16T18:33:36.416Z,59.67
2023-03-16T18:36:13.439Z,60.03
2023-03-16T18:38:41.123Z,60.60
2023-03-16T18:41:24.893Z,60.45
2023-03-16T18:43:53.033Z,60.09
2023-03-16T18:46:32.503Z,60.40
2023-03-16T18:49:23.236Z,60.10
2023-03-16T18:51:51.383Z,60.33
2023-03-16T18:54:26.076Z,60.71
2023-03-16T18:56:53.879Z,60.67
2023-03-16T18:59:20.964Z,60.82
2023-03-16T19:01:48.061Z,61.14
2023-03-16T19:04:21.488Z,61.00
2023-03-16T19:06:48.574Z,60.95
2023-03-16T19:09:26.538Z,60.91
2023-03-16T19:11:53.311Z,60.70
2023-03-16T19:14:22.570Z,61.17
2023-03-16T19:16:49.265Z,60.88
2023-03-16T19:19:17.043Z,61.27
2023-03-16T19:21:43.747Z,60.86
2023-03-16T19:24:18.005Z,60.57
2023-03-16T19:26:44.670Z,60.71
2023-03-16T19:29:11.542Z,61.04
2023-03-16T19:31:38.249Z,61.09
2023-03-16T19:34:06.075Z,61.59
2023-03-16T19:36:33.937Z,61.08
2023-03-16T19:39:00.817Z,60.54
2023-03-16T19:41:29.181Z,60.50
2023-03-16T19:43:58.101Z,60.91
2023-03-16T19:46:27.198Z,61.04
2023-03-16T19:48:54.055Z,60.92
2023-03-16T19:51:21.975Z,61.06
2023-03-16T19:53:48.790Z,60.65
2023-03-16T19:56:16.773Z,60.61
2023-03-16T19:58:45.524Z,60.92
2023-03-16T20:01:19.194Z,61.09
2023-03-16T20:03:47.731Z,61.15
2023-03-16T20:06:19.225Z,60.76
2023-03-16T20:08:46.775Z,60.87
2023-03-16T20:11:22.203Z,60.63
2023-03-16T20:13:48.832Z,60.45
2023-03-16T20:16:18.815Z,60.36
2023-03-16T20:18:47.221Z,60.51
2023-03-16T20:21:15.329Z,60.54
2023-03-16T20:23:41.949Z,60.93
2023-03-16T20:26:15.970Z,60.67
2023-03-16T20:28:42.598Z,60.73
2023-03-16T20:31:17.422Z,60.70
2023-03-16T20:33:44.087Z,60.34
2023-03-16T20:36:11.856Z,61.12
2023-03-16T20:38:38.879Z,60.81
2023-03-16T20:41:28.173Z,60.78
2023-03-16T20:43:55.306Z,60.40
2023-03-16T20:46:26.473Z,60.31
2023-03-16T20:48:53.653Z,59.32
2023-03-16T20:51:20.330Z,59.89
2023-03-16T20:53:47.530Z,60.20
2023-03-16T20:56:21.709Z,59.88
2023-03-16T20:58:49.885Z,59.63
2023-03-16T21:01:18.474Z,59.79
2023-03-16T21:03:47.480Z,60.07
2023-03-16T21:06:17.950Z,60.49
2023-03-16T21:08:44.619Z,60.27
2023-03-16T21:11:19.373Z,60.21
2023-03-16T21:13:46.570Z,59.93
2023-03-16T21:16:13.831Z,60.30
2023-03-16T21:18:40.509Z,60.59
2023-03-16T21:21:09.259Z,60.40
2023-03-16T21:23:36.404Z,60.50
2023-03-16T21:26:03.953Z,60.61
2023-03-16T21:28:32.459Z,60.51
2023-03-16T21:30:59.228Z,60.71
2023-03-16T21:33:39.911Z,60.84
2023-03-16T21:36:11.965Z,60.87
2023-03-16T21:38:38.660Z,61.20
2023-03-16T21:41:05.478Z,61.09
2023-03-16T21:43:32.165Z,61.07
2023-03-16T21:45:59.597Z,61.68
2023-03-16T21:48:36.631Z,61.27
2023-03-16T21:51:03.259Z,61.37
2023-03-16T21:53:31.943Z,61.85
2023-03-16T21:55:58.845Z,61.34
2023-03-16T21:58:25.580Z,61.06
2023-03-16T22:00:52.718Z,61.27
2023-03-16T22:03:37.842Z,60.77
2023-03-16T22:06:11.016Z,61.30
2023-03-16T22:08:39.467Z,60.83
2023-03-16T22:11:10.345Z,61.22
2023-03-16T22:13:36.984Z,59.99
2023-03-16T22:16:06.051Z,60.40
2023-03-16T22:18:37.460Z,60.72
2023-03-16T22:21:23.588Z,60.43
2023-03-16T22:23:50.668Z,61.01
2023-03-16T22:26:19.566Z,61.19
2023-03-16T22:28:50.702Z,61.60
2023-03-16T22:31:19.506Z,61.86
2023-03-16T22:33:47.728Z,61.42
2023-03-16T22:36:19.213Z,60.95
2023-03-16T22:38:45.970Z,61.45
2023-03-16T22:41:14.324Z,62.17
2023-03-16T22:43:41.980Z,61.83
2023-03-16T22:46:17.657Z,62.30
2023-03-16T22:48:44.277Z,62.69
2023-03-16T22:51:10.959Z,62.45
2023-03-16T22:53:42.443Z,62.48
2023-03-16T22:56:11.920Z,62.92
2023-03-16T22:59:06.089Z,63.04
2023-03-16T23:01:43.849Z,63.24
2023-03-16T23:04:20.020Z,63.92
2023-03-16T23:06:52.717Z,63.85
2023-03-16T23:09:20.428Z,63.48
2023-03-16T23:11:47.561Z,63.34
2023-03-16T23:14:24.313Z,63.84
2023-03-16T23:16:52.631Z,63.98
2023-03-16T23:19:30.137Z,63.20
2023-03-16T23:21:59.715Z,63.36
2023-03-16T23:24:26.483Z,63.10
2023-03-16T23:26:53.405Z,63.47
2023-03-16T23:29:20.911Z,63.38
2023-03-16T23:31:47.626Z,62.68
2023-03-16T23:34:16.760Z,62.60
2023-03-16T23:36:43.532Z,62.41
2023-03-16T23:39:10.664Z,61.69
2023-03-16T23:41:42.206Z,61.39
2023-03-16T23:44:08.904Z,61.67
2023-03-16T23:46:35.583Z,61.46
2023-03-16T23:49:03.702Z,60.28
2023-03-16T23:51:37.285Z,61.06
2023-03-16T23:54:25.433Z,61.11
2023-03-16T23:56:52.144Z,61.36
2023-03-16T23:59:19.560Z,60.50
